Time;durP1;ratioP1;P1;durP2;ratioP2;P2;SDS_P1;SDS_P2;PMS_P1;PMS_P2;Temp;Humidity;BMP_temperature;BMP_pressure;BME280_temperature;BME280_humidity;BME280_pressure;Samples;Min_cycle;Max_cycle;Signal;HPM_P1;HPM_P2
2022/08/08 00:00:37;;;;;;;;;3.00;3.00;;;;;19.32;44.30;101363.59;5078901;27;45329;-76
2022/08/08 00:03:16;;;;;;;;;4.25;4.25;;;;;19.29;44.22;101370.91;5077370;27;45401;-75
2022/08/08 00:05:53;;;;;;;;;4.00;4.00;;;;;19.26;44.63;101370.16;5077645;27;46301;-76
2022/08/08 00:08:23;;;;;;;;;2.25;2.25;;;;;19.24;44.75;101371.22;5075939;27;45260;-71
2022/08/08 00:10:57;;;;;;;;;3.00;3.00;;;;;19.21;44.78;101366.94;5091543;27;45287;-72
2022/08/08 00:13:37;;;;;;;;;5.00;5.00;;;;;19.19;45.00;101370.66;5076056;27;45484;-71
2022/08/08 00:16:18;;;;;;;;;6.25;6.25;;;;;19.19;44.73;101368.84;5075309;27;45337;-71
2022/08/08 00:19:17;;;;;;;;;5.25;5.25;;;;;19.16;45.15;101366.38;5075665;27;45461;-71
2022/08/08 00:21:51;;;;;;;;;3.50;3.50;;;;;19.11;45.54;101361.34;5075656;27;45320;-72
2022/08/08 00:24:23;;;;;;;;;3.00;3.00;;;;;19.06;46.16;101359.91;5075954;27;45603;-77
2022/08/08 00:26:54;;;;;;;;;4.00;4.00;;;;;19.02;46.59;101366.41;5075583;27;45474;-75
2022/08/08 00:29:35;;;;;;;;;6.25;6.25;;;;;18.98;46.28;101347.06;5075981;27;45353;-73
2022/08/08 00:32:09;;;;;;;;;31.00;28.75;;;;;19.03;46.67;101360.97;5075822;27;45521;-73
2022/08/08 00:38:02;;;;;;;;;21.25;20.75;;;;;18.98;47.11;101349.72;5077382;27;45537;-77
2022/08/08 00:40:27;;;;;;;;;4.25;4.25;;;;;18.95;47.30;101347.22;5075889;28;45375;-74
2022/08/08 00:43:05;;;;;;;;;3.25;3.25;;;;;18.92;47.13;101350.09;5074591;28;45332;-81
2022/08/08 00:45:59;;;;;;;;;3.50;3.50;;;;;18.88;47.03;101352.09;5076191;27;45463;-73
2022/08/08 00:48:49;;;;;;;;;4.50;4.50;;;;;18.90;47.59;101355.53;5075506;27;45276;-72
2022/08/08 00:51:46;;;;;;;;;3.75;3.75;;;;;18.91;47.20;101345.72;5077275;28;45520;-77
2022/08/08 00:54:39;;;;;;;;;212.75;161.75;;;;;18.88;47.65;101348.56;5079349;28;45484;-79
2022/08/08 00:57:39;;;;;;;;;6.00;6.00;;;;;18.86;47.76;101350.47;5079915;27;45375;-74
2022/08/08 01:00:28;;;;;;;;;5.75;5.75;;;;;18.63;48.04;101318.13;5071608;27;45955;-73
2022/08/08 01:03:18;;;;;;;;;4.00;4.00;;;;;18.74;48.04;101350.31;5078555;27;46226;-75
2022/08/08 01:05:55;;;;;;;;;7.00;7.00;;;;;18.71;48.29;101341.66;5079691;27;45354;-72
2022/08/08 01:08:38;;;;;;;;;4.50;4.50;;;;;18.68;48.22;101348.03;5079297;27;45353;-74
2022/08/08 01:11:30;;;;;;;;;3.25;3.25;;;;;18.65;48.06;101340.22;5078966;28;46242;-77
2022/08/08 01:14:29;;;;;;;;;4.25;4.25;;;;;18.64;48.30;101339.38;5078588;28;45344;-77
2022/08/08 01:17:30;;;;;;;;;6.00;6.00;;;;;18.60;48.59;101342.31;5078952;27;45496;-69
2022/08/08 01:20:38;;;;;;;;;4.00;4.00;;;;;18.63;48.52;101339.47;5079420;27;45262;-68
2022/08/08 01:23:41;;;;;;;;;6.00;6.00;;;;;18.64;48.28;101330.50;5067976;27;45400;-74
2022/08/08 01:26:24;;;;;;;;;4.50;4.50;;;;;18.62;48.65;101338.63;5078119;27;45267;-76
2022/08/08 01:29:11;;;;;;;;;5.00;5.00;;;;;18.61;48.59;101328.03;5078093;27;45315;-72
2022/08/08 01:31:43;;;;;;;;;5.75;5.75;;;;;18.58;48.88;101329.09;5078318;27;45253;-70
2022/08/08 01:34:42;;;;;;;;;5.00;5.00;;;;;18.56;48.75;101327.47;5077752;27;46476;-71
2022/08/08 01:37:31;;;;;;;;;7.25;7.25;;;;;18.54;48.75;101330.22;5078003;27;45263;-72
2022/08/08 01:40:08;;;;;;;;;5.50;5.50;;;;;18.53;48.87;101328.50;5078056;27;45234;-70
2022/08/08 01:42:44;;;;;;;;;4.75;4.75;;;;;18.51;48.83;101331.28;5078209;27;45531;-72
2022/08/08 01:45:12;;;;;;;;;5.50;5.50;;;;;18.50;49.03;101339.34;5077850;27;46429;-72
2022/08/08 01:48:03;;;;;;;;;5.25;5.25;;;;;18.47;49.07;101335.09;5077675;27;45302;-72
2022/08/08 01:50:48;;;;;;;;;5.50;5.50;;;;;18.44;49.20;101339.72;5078175;27;45298;-71
2022/08/08 01:53:37;;;;;;;;;5.00;5.00;;;;;18.38;49.35;101331.16;5078027;28;45664;-71
2022/08/08 01:56:31;;;;;;;;;6.25;6.25;;;;;18.38;49.58;101330.31;5077436;27;45433;-70
2022/08/08 01:59:33;;;;;;;;;7.50;7.50;;;;;18.35;49.68;101338.50;5075971;28;45690;-71
2022/08/08 02:02:07;;;;;;;;;5.75;5.75;;;;;18.32;49.59;101328.88;5076225;27;45380;-70
2022/08/08 02:04:48;;;;;;;;;6.25;6.25;;;;;18.30;49.65;101328.13;5077641;27;45437;-70
2022/08/08 02:07:44;;;;;;;;;6.75;6.75;;;;;18.24;50.01;101340.00;5077722;27;45202;-70
2022/08/08 02:10:47;;;;;;;;;6.00;6.00;;;;;18.20;49.89;101334.97;5077593;27;45329;-71
2022/08/08 02:13:18;;;;;;;;;6.00;6.00;;;;;18.17;50.06;101330.69;5077411;28;45164;-68
2022/08/08 02:15:52;;;;;;;;;6.75;6.75;;;;;18.13;50.14;101330.94;5077648;27;45417;-70
2022/08/08 02:18:20;;;;;;;;;7.75;7.75;;;;;18.10;50.38;101334.66;5077529;27;45367;-69
2022/08/08 02:23:48;;;;;;;;;7.25;7.25;;;;;18.02;50.25;101331.59;5077177;27;45317;-70
2022/08/08 02:26:35;;;;;;;;;5.50;5.50;;;;;17.99;51.10;101329.06;5077648;27;45306;-69
2022/08/08 02:29:44;;;;;;;;;7.50;7.50;;;;;17.96;51.67;101330.13;5077270;28;46816;-70
2022/08/08 02:32:37;;;;;;;;;7.00;7.00;;;;;17.94;51.40;101330.19;5065135;27;45392;-69
2022/08/08 02:35:02;;;;;;;;;7.25;7.25;;;;;17.90;51.54;101330.50;5077430;27;45223;-71
2022/08/08 02:38:12;;;;;;;;;6.25;6.25;;;;;17.93;51.37;101336.47;5077267;27;45372;-71
2022/08/08 02:41:15;;;;;;;;;2.00;2.00;;;;;17.93;51.24;101336.47;5043486;28;46609;-70
2022/08/08 02:43:43;;;;;;;;;7.00;7.00;;;;;17.94;51.10;101324.88;5075822;27;45379;-73
2022/08/08 02:46:47;;;;;;;;;7.50;6.50;;;;;17.94;51.51;101326.69;5075979;28;45475;-73
2022/08/08 02:49:25;;;;;;;;;6.75;6.75;;;;;17.91;51.60;101333.06;5077384;27;45446;-74
2022/08/08 02:52:15;;;;;;;;;6.00;6.00;;;;;17.84;51.76;101331.69;5077328;28;45336;-73
2022/08/08 02:54:55;;;;;;;;;7.00;7.00;;;;;17.80;51.84;101332.81;5076715;27;45400;-71
2022/08/08 02:57:29;;;;;;;;;9.50;9.50;;;;;17.74;51.79;101338.50;5077209;27;45307;-72
2022/08/08 03:00:18;;;;;;;;;8.00;8.00;;;;;17.70;52.13;101332.53;5077045;27;45373;-70
2022/08/08 03:03:09;;;;;;;;;7.50;7.50;;;;;17.65;52.29;101331.94;5092066;27;46633;-70
2022/08/08 03:05:34;;;;;;;;;7.50;7.50;;;;;17.58;52.31;101333.25;5076525;27;45323;-71
2022/08/08 03:08:52;;;;;;;;;8.50;8.50;;;;;17.57;52.40;101340.34;5076418;27;45399;-71
2022/08/08 03:11:55;;;;;;;;;8.50;8.50;;;;;17.55;52.75;101328.09;5075580;27;45247;-69
2022/08/08 03:14:42;;;;;;;;;9.25;9.25;;;;;17.51;52.64;101335.38;5075712;27;46623;-70
2022/08/08 03:17:13;;;;;;;;;9.00;9.00;;;;;17.50;52.71;101337.22;5076479;27;45353;-72
2022/08/08 03:20:01;;;;;;;;;8.75;8.75;;;;;17.47;52.77;101345.31;5074851;27;45512;-72
2022/08/08 03:22:27;;;;;;;;;6.75;6.75;;;;;17.44;52.79;101342.84;5076447;28;45587;-72
2022/08/08 03:24:53;;;;;;;;;7.00;7.00;;;;;17.41;52.87;101340.38;5076180;27;46177;-72
2022/08/08 03:27:23;;;;;;;;;7.75;7.75;;;;;17.40;52.82;101337.81;5076235;27;45328;-73
2022/08/08 03:29:57;;;;;;;;;8.50;8.50;;;;;17.38;53.16;101340.53;5075958;28;45303;-71
2022/08/08 03:35:08;;;;;;;;;8.00;8.00;;;;;17.35;53.15;101343.38;5075622;28;45877;-71
2022/08/08 03:37:34;;;;;;;;;8.00;7.25;;;;;17.30;53.42;101341.00;5075832;27;45457;-72
2022/08/08 03:40:00;;;;;;;;;7.75;7.75;;;;;17.30;53.36;101334.81;5075746;27;45363;-73
2022/08/08 03:42:25;;;;;;;;;8.25;8.25;;;;;17.28;53.31;101344.66;5076128;27;45553;-72
2022/08/08 03:44:51;;;;;;;;;3.75;3.75;;;;;17.25;53.64;101343.06;5075413;27;59157;-74
2022/08/08 03:47:21;;;;;;;;;8.50;8.50;;;;;17.21;54.22;101346.81;5074148;27;45312;-72
2022/08/08 03:49:47;;;;;;;;;6.50;6.50;;;;;17.19;54.16;101352.22;5074401;28;45293;-72
2022/08/08 03:52:13;;;;;;;;;10.00;10.00;;;;;17.14;54.28;101348.97;5075846;27;45433;-71
2022/08/08 03:54:41;;;;;;;;;8.75;8.75;;;;;17.12;54.02;101357.97;5075305;27;45297;-72
2022/08/08 03:57:15;;;;;;;;;10.50;10.50;;;;;17.09;54.44;101348.34;5075668;27;45548;-72
2022/08/08 03:59:40;;;;;;;;;8.00;8.00;;;;;17.07;53.96;101353.78;5075889;27;45621;-73
2022/08/08 04:02:18;;;;;;;;;9.00;9.00;;;;;17.05;54.34;101354.78;5076129;27;45401;-73
2022/08/08 04:04:45;;;;;;;;;10.25;10.25;;;;;17.04;54.36;101359.25;5075649;27;47295;-73
2022/08/08 04:07:10;;;;;;;;;10.00;10.00;;;;;17.01;54.41;101363.88;5075543;27;45442;-70
2022/08/08 04:09:37;;;;;;;;;9.25;9.25;;;;;16.99;54.44;101363.97;5075413;27;45302;-71
2022/08/08 04:12:03;;;;;;;;;10.00;10.00;;;;;16.96;54.76;101364.06;5075683;27;45330;-70
2022/08/08 04:14:28;;;;;;;;;11.25;11.25;;;;;16.96;54.97;101365.91;5074659;27;46567;-71
2022/08/08 04:16:55;;;;;;;;;10.75;10.75;;;;;16.95;54.65;101359.72;5075585;27;45330;-69
2022/08/08 04:19:20;;;;;;;;;10.75;10.75;;;;;16.92;54.96;101358.09;5075452;27;45361;-69
2022/08/08 04:21:45;;;;;;;;;10.50;10.50;;;;;16.90;54.92;101362.63;5075500;27;45403;-71
2022/08/08 04:24:11;;;;;;;;;10.00;10.00;;;;;16.86;55.24;101363.75;5075138;27;45472;-70
2022/08/08 04:26:36;;;;;;;;;8.75;8.75;;;;;16.85;55.06;101369.13;5074080;27;45266;-70
2022/08/08 04:29:02;;;;;;;;;9.75;9.75;;;;;16.85;55.08;101369.13;5075388;27;45283;-71
2022/08/08 04:31:27;;;;;;;;;10.00;9.25;;;;;16.80;55.25;101364.06;5075734;27;45861;-71
2022/08/08 04:33:52;;;;;;;;;6.75;6.75;;;;;16.76;55.34;101360.72;5075480;27;46572;-73
2022/08/08 04:36:18;;;;;;;;;8.50;8.50;;;;;16.76;55.51;101366.03;5075236;27;45310;-72
2022/08/08 04:38:43;;;;;;;;;12.50;12.50;;;;;16.77;55.63;101370.41;5074933;27;45413;-70
2022/08/08 04:41:09;;;;;;;;;7.50;7.50;;;;;16.75;55.45;101374.94;5075232;27;45235;-70
2022/08/08 04:43:34;;;;;;;;;8.50;8.50;;;;;16.72;55.65;101375.09;5074719;27;45752;-70
2022/08/08 04:46:00;;;;;;;;;8.50;8.50;;;;;16.67;55.95;101360.38;5074673;27;45221;-69
2022/08/08 04:48:26;;;;;;;;;9.50;9.50;;;;;16.65;55.87;101371.06;5075175;27;45290;-70
2022/08/08 04:50:51;;;;;;;;;9.25;9.25;;;;;16.62;56.33;101380.06;5074911;27;45220;-70
2022/08/08 04:53:16;;;;;;;;;9.50;9.00;;;;;16.57;56.19;101365.28;5073032;28;47056;-71
2022/08/08 04:55:42;;;;;;;;;10.00;10.00;;;;;16.58;56.81;101380.28;5074628;27;45318;-71
2022/08/08 04:58:12;;;;;;;;;9.75;9.75;;;;;16.54;56.75;101373.44;5073328;27;45457;-72
2022/08/08 05:00:38;;;;;;;;;10.25;10.25;;;;;16.52;56.50;101375.31;5075191;27;45363;-74
2022/08/08 05:03:03;;;;;;;;;11.25;11.25;;;;;16.53;56.91;101380.56;5074699;27;46473;-74
2022/08/08 05:05:29;;;;;;;;;11.00;11.00;;;;;16.52;57.04;101372.66;5075162;27;45392;-75
2022/08/08 05:07:55;;;;;;;;;9.00;9.00;;;;;16.51;57.14;101377.13;5073882;27;45392;-75
2022/08/08 05:10:20;;;;;;;;;10.75;10.75;;;;;16.52;57.13;101385.94;5056931;28;45633;-73
2022/08/08 05:12:45;;;;;;;;;11.00;11.00;;;;;16.48;56.90;101380.78;5074591;27;46004;-75
2022/08/08 05:15:11;;;;;;;;;10.25;9.75;;;;;16.52;57.03;101383.28;5074855;27;45269;-73
2022/08/08 05:17:36;;;;;;;;;9.25;9.25;;;;;16.57;57.04;101389.19;5074722;27;45249;-74
2022/08/08 05:20:02;;;;;;;;;10.00;10.00;;;;;16.58;56.97;101385.59;5074859;27;45496;-72
2022/08/08 05:22:27;;;;;;;;;6.25;6.25;;;;;16.59;57.44;101395.28;5075951;27;45393;-73
2022/08/08 05:24:53;;;;;;;;;10.50;10.50;;;;;16.57;56.90;101383.88;5075828;27;45358;-74
2022/08/08 05:27:18;;;;;;;;;11.50;11.50;;;;;16.58;57.20;101394.44;5075115;27;45305;-74
2022/08/08 05:29:43;;;;;;;;;10.00;10.00;;;;;16.54;56.83;101392.00;5073587;27;45725;-74
2022/08/08 05:32:09;;;;;;;;;12.00;12.00;;;;;16.56;57.12;101398.97;5074442;27;46574;-71
2022/08/08 05:34:40;;;;;;;;;12.25;11.75;;;;;16.57;56.95;101402.47;5074256;27;45405;-74
2022/08/08 05:37:07;;;;;;;;;11.00;11.00;;;;;16.53;56.94;101396.47;5075962;27;45356;-72
2022/08/08 05:39:33;;;;;;;;;13.00;12.25;;;;;16.54;56.83;101400.84;5078058;27;45485;-71
2022/08/08 05:41:59;;;;;;;;;10.25;10.25;;;;;16.47;57.39;101392.34;5077952;27;46570;-72
2022/08/08 05:44:28;;;;;;;;;11.50;11.50;;;;;16.56;56.99;101409.59;5077445;27;45301;-72
2022/08/08 05:46:54;;;;;;;;;11.50;11.50;;;;;16.56;57.00;101406.06;5077746;27;45312;-71
2022/08/08 05:49:20;;;;;;;;;11.25;11.25;;;;;16.53;57.72;101415.06;5077450;27;45426;-71
2022/08/08 05:51:47;;;;;;;;;12.25;12.25;;;;;16.54;57.58;101415.91;5077388;27;46617;-71
2022/08/08 05:54:12;;;;;;;;;12.00;12.00;;;;;16.52;57.65;101412.47;5077198;27;45446;-73
2022/08/08 05:56:40;;;;;;;;;9.75;9.75;;;;;16.53;57.73;101408.88;5076283;27;45382;-71
2022/08/08 05:59:20;;;;;;;;;9.75;9.75;;;;;16.53;58.03;101416.84;5076358;27;45589;-71
2022/08/08 06:01:53;;;;;;;;;12.50;12.50;;;;;16.56;57.70;101412.25;5076952;27;45246;-73
2022/08/08 06:04:23;;;;;;;;;12.00;11.50;;;;;16.61;57.96;101419.97;5075939;27;45238;-72
2022/08/08 06:06:51;;;;;;;;;9.50;9.50;;;;;16.63;57.80;101418.09;5077176;27;45324;-71
2022/08/08 06:09:22;;;;;;;;;10.00;10.00;;;;;16.65;57.56;101409.13;5077310;27;45405;-72
2022/08/08 06:11:48;;;;;;;;;8.00;8.00;;;;;16.66;57.42;101409.97;5077417;27;45427;-73
2022/08/08 06:14:14;;;;;;;;;9.25;9.25;;;;;16.74;57.37;101413.06;5077159;27;45651;-76
2022/08/08 06:16:42;;;;;;;;;11.25;11.25;;;;;16.84;57.40;101421.41;5077358;27;45395;-72
2022/08/08 06:19:09;;;;;;;;;12.25;11.00;;;;;16.87;57.39;101423.03;5077547;28;45351;-74
2022/08/08 06:21:36;;;;;;;;;9.25;9.25;;;;;16.92;57.21;101428.97;5076819;27;48872;-73
2022/08/08 06:24:05;;;;;;;;;10.50;10.50;;;;;16.96;57.09;101427.00;5077240;28;45159;-74
2022/08/08 06:26:38;;;;;;;;;10.25;10.25;;;;;17.04;56.82;101439.00;5077527;27;45413;-75
2022/08/08 06:29:08;;;;;;;;;12.75;12.75;;;;;17.11;56.86;101436.84;5077047;27;45549;-72
2022/08/08 06:31:36;;;;;;;;;11.75;11.75;;;;;17.19;56.30;101447.91;5076587;27;45595;-74
2022/08/08 06:34:16;;;;;;;;;9.75;9.00;;;;;17.15;56.44;101437.56;5077316;27;45189;-74
2022/08/08 06:36:43;;;;;;;;;13.00;12.75;;;;;17.22;56.11;101446.91;5076829;27;45386;-73
2022/08/08 06:39:10;;;;;;;;;9.00;9.00;;;;;17.35;56.42;101447.94;5077306;27;45315;-74
2022/08/08 06:41:49;;;;;;;;;9.25;9.25;;;;;17.39;55.87;101456.59;5076589;28;45700;-80
2022/08/08 06:44:17;;;;;;;;;10.25;10.25;;;;;17.42;55.90;101460.91;5077380;27;45309;-75
2022/08/08 06:46:43;;;;;;;;;10.75;10.75;;;;;17.49;55.98;101460.47;5076717;27;45332;-71
2022/08/08 06:49:09;;;;;;;;;13.00;13.00;;;;;17.60;55.66;101451.91;5076093;27;45365;-71
2022/08/08 06:51:35;;;;;;;;;15.50;15.50;;;;;17.69;55.79;101452.31;5076398;27;46427;-71
2022/08/08 06:54:01;;;;;;;;;11.25;11.25;;;;;17.76;55.44;101451.91;5076779;27;45226;-71
2022/08/08 06:56:29;;;;;;;;;11.00;11.00;;;;;17.88;54.97;101455.66;5076485;27;45437;-71
2022/08/08 06:58:55;;;;;;;;;12.00;12.00;;;;;17.99;54.78;101460.38;5076673;27;45537;-72
2022/08/08 07:01:24;;;;;;;;;13.00;13.00;;;;;18.09;54.60;101452.75;5076025;27;46556;-72
2022/08/08 07:04:21;;;;;;;;;11.50;11.25;;;;;18.24;54.53;101464.31;5076339;27;45316;-69
2022/08/08 07:06:59;;;;;;;;;11.50;11.50;;;;;18.32;53.98;101462.03;5076161;27;45445;-72
2022/08/08 07:09:36;;;;;;;;;14.00;12.00;;;;;18.35;53.83;101469.00;5076564;27;45445;-73
2022/08/08 07:12:06;;;;;;;;;10.75;10.75;;;;;18.38;53.62;101468.81;5076530;27;45353;-72
2022/08/08 07:15:00;;;;;;;;;11.50;11.50;;;;;18.43;53.24;101472.06;5076310;27;45366;-74
2022/08/08 07:17:31;;;;;;;;;11.25;11.25;;;;;18.51;53.23;101472.47;5076479;27;45317;-74
2022/08/08 07:19:56;;;;;;;;;11.25;11.25;;;;;18.64;53.32;101474.41;5076619;27;45464;-72
2022/08/08 07:22:58;;;;;;;;;8.50;8.50;;;;;18.78;52.44;101478.91;5074321;28;47652;-76
2022/08/08 07:25:25;;;;;;;;;11.75;10.00;;;;;18.83;52.86;101477.66;5067524;27;45348;-77
2022/08/08 07:27:58;;;;;;;;;10.50;10.50;;;;;18.88;52.35;101473.84;5075289;27;45326;-77
2022/08/08 07:30:24;;;;;;;;;10.25;10.25;;;;;18.97;52.03;101482.19;5076349;27;45300;-79
2022/08/08 07:32:50;;;;;;;;;8.75;8.75;;;;;18.93;51.96;101461.97;5076219;27;46527;-79
2022/08/08 07:35:16;;;;;;;;;4.00;4.00;;;;;19.08;51.70;101478.00;5076631;27;45378;-75
2022/08/08 07:37:42;;;;;;;;;6.50;6.50;;;;;19.15;51.61;101479.34;5076514;27;45838;-79
2022/08/08 07:40:09;;;;;;;;;9.25;9.25;;;;;19.15;51.38;101467.81;5075486;27;45591;-78
2022/08/08 07:42:36;;;;;;;;;8.00;8.00;;;;;19.27;50.96;101481.22;5077734;28;46528;-79
2022/08/08 07:45:02;;;;;;;;;6.50;6.50;;;;;19.35;50.83;101485.22;5076695;27;45161;-76
2022/08/08 07:47:28;;;;;;;;;8.25;8.25;;;;;19.37;50.44;101477.97;5075956;27;45337;-74
2022/08/08 07:49:53;;;;;;;;;8.75;8.75;;;;;19.43;50.62;101482.94;5076160;27;45365;-74
2022/08/08 07:52:19;;;;;;;;;8.00;8.00;;;;;19.45;49.99;101481.00;5076341;27;45279;-75
2022/08/08 07:54:53;;;;;;;;;9.00;9.00;;;;;19.54;50.16;101492.94;5076130;28;45352;-73
2022/08/08 07:57:52;;;;;;;;;8.75;8.75;;;;;19.63;50.29;101495.00;5077102;27;45290;-77
2022/08/08 08:00:18;;;;;;;;;9.50;9.00;;;;;19.69;49.73;101497.28;5074539;28;45264;-77
2022/08/08 08:03:31;;;;;;;;;8.00;8.00;;;;;19.85;49.50;101494.47;5075355;28;45462;-71
2022/08/08 08:05:58;;;;;;;;;9.00;9.00;;;;;20.07;49.41;101492.22;5035735;28;45304;-73
2022/08/08 08:08:40;;;;;;;;;5.75;5.75;;;;;20.25;49.43;101487.50;5072523;27;45327;-74
2022/08/08 08:11:13;;;;;;;;;7.25;7.25;;;;;20.43;48.48;101490.75;5076049;27;45466;-72
2022/08/08 08:13:48;;;;;;;;;6.75;6.75;;;;;20.57;48.17;101485.31;5075558;27;47173;-74
2022/08/08 08:16:20;;;;;;;;;6.25;5.00;;;;;20.64;47.84;101487.56;5074008;28;45528;-74
2022/08/08 08:18:55;;;;;;;;;5.25;5.25;;;;;20.71;47.44;101486.19;5074994;28;45186;-74
2022/08/08 08:21:22;;;;;;;;;9.00;9.00;;;;;20.73;47.13;101492.28;5075301;27;45355;-73
2022/08/08 08:23:47;;;;;;;;;8.00;8.00;;;;;20.79;47.06;101489.22;5075422;27;45716;-72
2022/08/08 08:26:13;;;;;;;;;9.00;9.00;;;;;20.93;46.64;101487.41;5075203;27;45454;-75
2022/08/08 08:28:39;;;;;;;;;6.25;6.25;;;;;21.08;46.58;101496.19;5075640;27;45344;-72
2022/08/08 08:31:05;;;;;;;;;11.50;11.50;;;;;21.15;46.25;101490.25;5074061;27;45473;-73
2022/08/08 08:33:31;;;;;;;;;7.75;7.75;;;;;21.25;46.16;101487.81;5075296;27;46299;-71
2022/08/08 08:35:57;;;;;;;;;8.25;8.25;;;;;21.40;46.22;101491.22;5076397;27;45566;-72
2022/08/08 08:38:22;;;;;;;;;7.75;7.75;;;;;21.55;45.79;101485.72;5075359;27;45318;-73
2022/08/08 08:40:48;;;;;;;;;7.00;7.00;;;;;21.70;45.83;101492.66;5075543;27;45238;-80
2022/08/08 08:43:16;;;;;;;;;5.00;5.00;;;;;21.86;44.85;101488.84;5075345;27;45393;-73
2022/08/08 08:45:42;;;;;;;;;6.75;6.75;;;;;21.96;44.17;101500.59;5075761;27;45275;-70
2022/08/08 08:48:09;;;;;;;;;7.00;6.25;;;;;22.07;44.14;101502.47;5075496;27;45319;-71
2022/08/08 08:50:36;;;;;;;;;7.75;7.75;;;;;22.19;44.02;101495.34;5074930;27;45325;-71
2022/08/08 08:53:07;;;;;;;;;5.25;5.25;;;;;22.25;42.66;101492.19;5074682;28;46476;-70
2022/08/08 08:55:36;;;;;;;;;9.00;7.75;;;;;22.36;42.54;101494.06;5074418;28;45437;-70
2022/08/08 08:58:02;;;;;;;;;8.00;8.00;;;;;22.38;42.06;101491.28;5074799;27;45248;-80
2022/08/08 09:00:29;;;;;;;;;14.75;14.75;;;;;22.45;42.00;101492.56;5074136;27;45668;-79
2022/08/08 09:02:58;;;;;;;;;5.50;5.50;;;;;22.45;41.67;101489.88;5075697;27;46246;-76
2022/08/08 09:05:27;;;;;;;;;4.75;4.75;;;;;22.51;41.37;101489.41;5075280;27;45251;-78
2022/08/08 09:07:58;;;;;;;;;6.75;6.75;;;;;22.60;41.77;101488.69;5075153;27;45341;-73
2022/08/08 09:10:27;;;;;;;;;4.25;4.25;;;;;22.69;41.01;101480.91;5074966;27;45273;-72
2022/08/08 09:12:54;;;;;;;;;5.75;5.75;;;;;22.82;41.23;101484.34;5077358;27;45349;-73
2022/08/08 09:15:20;;;;;;;;;3.25;3.25;;;;;22.94;41.06;101481.66;5078433;27;45237;-75
2022/08/08 09:17:46;;;;;;;;;5.00;5.00;;;;;23.03;40.71;101483.63;5078456;27;45238;-76
2022/08/08 09:20:12;;;;;;;;;5.00;5.00;;;;;23.16;40.56;101489.72;5079569;28;45470;-76
2022/08/08 09:22:37;;;;;;;;;6.25;6.25;;;;;23.26;40.25;101483.66;5078693;27;46495;-78
2022/08/08 09:25:04;;;;;;;;;6.00;6.00;;;;;23.34;39.40;101481.22;5060136;28;45517;-76
2022/08/08 09:27:29;;;;;;;;;7.00;7.00;;;;;23.40;39.78;101478.06;5078536;27;45325;-74
2022/08/08 09:30:02;;;;;;;;;6.75;6.75;;;;;23.49;39.45;101482.69;5078044;27;45633;-72
2022/08/08 09:32:36;;;;;;;;;8.00;8.00;;;;;23.57;39.99;101491.94;5077825;27;46268;-72
2022/08/08 09:35:07;;;;;;;;;6.50;6.50;;;;;23.66;38.90;101484.94;5077801;27;45348;-74
2022/08/08 09:37:44;;;;;;;;;7.50;7.50;;;;;23.74;38.56;101483.34;5078023;27;45494;-70
2022/08/08 09:40:12;;;;;;;;;6.25;6.25;;;;;23.73;38.91;101483.47;5078414;27;45384;-73
2022/08/08 09:42:45;;;;;;;;;6.25;6.25;;;;;23.80;38.81;101475.75;5077692;27;46331;-69
2022/08/08 09:45:18;;;;;;;;;7.00;7.00;;;;;23.91;38.53;101479.28;5078429;27;45258;-71
2022/08/08 09:47:44;;;;;;;;;7.50;6.00;;;;;23.96;38.35;101470.81;5078812;27;45281;-70
2022/08/08 09:50:14;;;;;;;;;6.00;6.00;;;;;24.03;38.17;101473.91;5079190;27;45572;-74
2022/08/08 09:52:47;;;;;;;;;6.00;6.00;;;;;24.14;38.64;101479.22;5078580;27;45516;-69
2022/08/08 09:55:12;;;;;;;;;7.00;7.00;;;;;24.21;38.51;101482.22;5078016;27;45333;-69
2022/08/08 09:57:39;;;;;;;;;4.50;4.50;;;;;24.28;37.84;101480.72;5076654;27;45361;-77
2022/08/08 10:00:10;;;;;;;;;4.00;4.00;;;;;24.42;37.81;101476.03;5078343;27;45359;-76
2022/08/08 10:02:42;;;;;;;;;9.75;9.75;;;;;24.54;37.65;101480.38;5077844;27;45363;-77
2022/08/08 10:05:09;;;;;;;;;5.75;5.75;;;;;24.59;37.46;101471.88;5077776;27;45354;-76
2022/08/08 10:07:35;;;;;;;;;7.00;7.00;;;;;24.54;36.81;101471.44;5078138;27;45201;-76
2022/08/08 10:10:00;;;;;;;;;5.25;5.25;;;;;24.58;36.87;101479.13;5077911;27;45281;-78
2022/08/08 10:12:34;;;;;;;;;5.50;5.50;;;;;24.67;36.93;101476.63;5075687;28;46067;-76
2022/08/08 10:15:01;;;;;;;;;9.50;9.50;;;;;24.77;36.84;101485.63;5076991;27;45430;-72
2022/08/08 10:17:27;;;;;;;;;10.25;9.50;;;;;24.76;36.82;101478.53;5077434;27;45198;-76
2022/08/08 10:19:57;;;;;;;;;8.00;8.00;;;;;24.75;36.13;101476.84;5077874;27;45685;-75
2022/08/08 10:22:23;;;;;;;;;6.50;6.50;;;;;24.79;36.59;101470.19;5075418;27;47088;-78
2022/08/08 10:24:53;;;;;;;;;7.00;7.00;;;;;24.89;36.43;101463.03;5074976;27;45358;-74
2022/08/08 10:27:27;;;;;;;;;4.75;4.75;;;;;25.03;36.61;101469.03;5078068;27;45243;-77
2022/08/08 10:30:00;;;;;;;;;7.00;7.00;;;;;25.16;36.83;101461.56;5076291;27;45189;-72
2022/08/08 10:33:03;;;;;;;;;6.50;6.50;;;;;25.28;36.54;101462.34;5075802;27;47318;-78
2022/08/08 10:35:27;;;;;;;;;7.50;7.50;;;;;25.36;36.39;101451.72;5075774;27;45356;-76
2022/08/08 10:38:01;;;;;;;;;4.00;4.00;;;;;25.49;35.92;101459.59;5076948;27;45363;-73
2022/08/08 10:40:29;;;;;;;;;0.00;0.00;;;;;25.58;35.88;101452.50;5078174;28;45574;-75
2022/08/08 10:42:57;;;;;;;;;5.25;5.25;;;;;25.69;35.50;101456.06;5075314;27;46932;-71
2022/08/08 10:45:23;;;;;;;;;7.00;7.00;;;;;25.69;34.97;101451.53;5078146;27;45369;-74
2022/08/08 10:48:09;;;;;;;;;7.00;7.00;;;;;25.69;35.14;101453.38;5077511;27;45350;-72
2022/08/08 10:50:37;;;;;;;;;7.25;7.25;;;;;25.76;34.88;101465.28;5077539;27;45248;-73
2022/08/08 10:53:14;;;;;;;;;5.75;5.75;;;;;25.81;34.84;101447.72;5076463;27;45666;-69
2022/08/08 10:55:41;;;;;;;;;5.75;5.75;;;;;25.80;34.29;101451.41;5076024;27;45411;-70
2022/08/08 10:58:09;;;;;;;;;6.00;6.00;;;;;25.88;34.23;101447.16;5076451;27;45474;-70
2022/08/08 11:00:41;;;;;;;;;4.00;4.00;;;;;25.96;34.37;101444.59;5076522;27;45369;-71
2022/08/08 11:03:14;;;;;;;;;6.50;6.50;;;;;26.08;34.22;101450.72;5076323;27;46480;-70
2022/08/08 11:05:50;;;;;;;;;3.00;3.00;;;;;26.19;33.82;101453.28;5076721;28;45328;-70
2022/08/08 11:08:23;;;;;;;;;5.00;5.00;;;;;26.27;33.20;101447.16;5077597;27;45247;-70
2022/08/08 11:11:02;;;;;;;;;4.50;4.50;;;;;26.37;33.78;101449.84;5077233;27;45369;-71
2022/08/08 11:13:27;;;;;;;;;5.00;5.00;;;;;26.37;32.67;101448.00;5076272;27;46091;-68
2022/08/08 11:15:54;;;;;;;;;4.00;4.00;;;;;26.45;33.03;101451.81;5076154;27;45347;-68
2022/08/08 11:18:22;;;;;;;;;5.25;5.25;;;;;26.49;32.75;101437.91;5076934;27;45404;-73
2022/08/08 11:20:51;;;;;;;;;3.50;3.50;;;;;26.60;32.69;101444.97;5076928;27;45333;-72
2022/08/08 11:23:20;;;;;;;;;6.75;5.50;;;;;26.64;30.89;101446.38;5077957;27;45599;-76
2022/08/08 11:25:46;;;;;;;;;6.25;6.25;;;;;26.62;31.02;101443.00;5077519;27;45470;-75
2022/08/08 11:28:12;;;;;;;;;7.50;7.50;;;;;26.60;31.10;101439.59;5077559;27;45367;-74
2022/08/08 11:30:38;;;;;;;;;5.50;5.50;;;;;26.64;31.13;101440.13;5077794;27;45285;-76
2022/08/08 11:33:04;;;;;;;;;5.25;5.25;;;;;26.61;31.51;101441.28;5077079;27;46343;-75
2022/08/08 11:35:30;;;;;;;;;7.00;7.00;;;;;26.69;31.88;101427.03;5076870;27;45278;-71
2022/08/08 11:37:55;;;;;;;;;8.50;8.50;;;;;26.75;30.13;101428.31;5076126;27;45398;-74
2022/08/08 11:40:21;;;;;;;;;8.00;8.00;;;;;26.80;30.01;101428.72;5076059;27;45438;-72
2022/08/08 11:42:47;;;;;;;;;10.00;10.00;;;;;26.78;30.04;101431.56;5075818;27;45494;-69
2022/08/08 11:45:13;;;;;;;;;5.00;5.00;;;;;26.88;30.49;101425.28;5075691;27;45369;-69
2022/08/08 11:47:40;;;;;;;;;4.00;4.00;;;;;27.00;30.44;101428.66;5075727;27;45450;-72
2022/08/08 11:50:08;;;;;;;;;20.00;20.00;;;;;27.05;29.33;101429.06;5076076;27;45331;-70
2022/08/08 11:52:34;;;;;;;;;7.50;7.50;;;;;27.01;29.99;101416.88;5075616;27;46255;-74
2022/08/08 11:55:00;;;;;;;;;4.00;4.00;;;;;27.12;30.10;101413.97;5075441;27;45303;-70
2022/08/08 11:57:28;;;;;;;;;4.50;4.50;;;;;27.19;29.11;101417.75;5074409;27;45381;-71